Time;durP1;ratioP1;P1;durP2;ratioP2;P2;SDS_P1;SDS_P2;PMS_P1;PMS_P2;Temp;Humidity;BMP_temperature;BMP_pressure;BME280_temperature;BME280_humidity;BME280_pressure;Samples;Min_cycle;Max_cycle;Signal;HPM_P1;HPM_P2
2022/03/13 00:01:33;;;;;;;22.17;8.68;;;4.00;99.90;;;;;;5055041;28;20025;-46
2022/03/13 00:04:01;;;;;;;22.23;9.20;;;3.80;99.90;;;;;;5056141;28;20083;-46
2022/03/13 00:06:32;;;;;;;21.15;8.90;;;3.70;99.90;;;;;;5054914;28;20107;-46
2022/03/13 00:08:58;;;;;;;;;;;3.60;99.90;;;;;;5055609;28;20021;-46
2022/03/13 00:11:25;;;;;;;15.32;7.63;;;3.60;99.90;;;;;;5055992;28;19904;-46
2022/03/13 00:13:53;;;;;;;21.38;8.90;;;3.70;99.90;;;;;;5054729;28;20059;-46
2022/03/13 00:16:19;;;;;;;23.38;8.77;;;3.70;99.90;;;;;;5055249;28;20032;-47
2022/03/13 00:18:48;;;;;;;16.77;8.82;;;3.70;99.90;;;;;;5055912;28;20029;-46
2022/03/13 00:21:18;;;;;;;16.42;7.40;;;3.70;99.90;;;;;;5054586;28;20032;-46
2022/03/13 00:23:46;;;;;;;15.23;7.28;;;3.60;99.90;;;;;;5055763;28;20028;-46
2022/03/13 00:26:13;;;;;;;20.33;7.85;;;3.60;99.90;;;;;;5055734;28;20494;-46
2022/03/13 00:28:39;;;;;;;16.20;7.47;;;3.50;99.90;;;;;;5054493;28;20070;-46
2022/03/13 00:31:06;;;;;;;16.55;7.57;;;3.50;99.90;;;;;;5055602;28;20092;-46
2022/03/13 00:33:32;;;;;;;15.15;7.07;;;3.50;99.90;;;;;;5055884;28;20032;-46
2022/03/13 00:35:59;;;;;;;15.60;7.85;;;3.40;99.90;;;;;;5055291;28;20025;-47
2022/03/13 00:38:25;;;;;;;22.00;8.95;;;3.30;99.90;;;;;;5055583;28;20078;-48
2022/03/13 00:40:52;;;;;;;20.88;8.57;;;3.20;99.90;;;;;;5054001;28;20043;-46
2022/03/13 00:43:22;;;;;;;14.18;7.28;;;3.00;99.90;;;;;;5054106;28;20020;-50
2022/03/13 00:45:48;;;;;;;14.63;6.53;;;3.30;99.90;;;;;;5055680;28;20013;-46
2022/03/13 00:48:15;;;;;;;16.02;7.65;;;3.30;99.90;;;;;;5055851;28;20053;-46
2022/03/13 00:50:40;;;;;;;17.08;7.18;;;3.30;99.90;;;;;;5055240;28;20053;-46
2022/03/13 00:53:06;;;;;;;17.20;8.75;;;3.30;99.90;;;;;;5054047;28;20064;-47
2022/03/13 00:55:32;;;;;;;20.80;7.70;;;3.10;99.90;;;;;;5053925;28;20029;-47
2022/03/13 00:57:58;;;;;;;17.20;7.00;;;3.10;99.90;;;;;;5054273;28;20036;-46
2022/03/13 01:00:33;;;;;;;13.10;6.20;;;3.00;99.90;;;;;;5055525;28;20025;-48
2022/03/13 01:02:58;;;;;;;12.25;6.35;;;3.10;99.90;;;;;;5055089;28;20025;-52
2022/03/13 01:05:26;;;;;;;16.27;7.20;;;3.10;99.90;;;;;;5053847;28;20033;-46
2022/03/13 01:07:54;;;;;;;19.52;7.53;;;2.90;99.90;;;;;;5054995;28;20051;-47
2022/03/13 01:10:20;;;;;;;17.58;7.88;;;2.90;99.90;;;;;;5055348;28;20027;-46
2022/03/13 01:12:48;;;;;;;18.40;7.00;;;2.90;99.90;;;;;;5053753;28;20025;-47
2022/03/13 01:15:15;;;;;;;16.65;7.95;;;2.80;99.90;;;;;;5054839;28;20126;-49
2022/03/13 01:17:42;;;;;;;16.15;7.03;;;2.80;99.90;;;;;;5054830;28;20146;-46
2022/03/13 01:20:21;;;;;;;17.50;7.47;;;2.70;99.90;;;;;;5054776;28;20025;-47
2022/03/13 01:22:47;;;;;;;12.60;6.32;;;2.70;99.90;;;;;;5054726;28;20025;-48
2022/03/13 01:25:13;;;;;;;13.63;6.15;;;2.70;99.90;;;;;;5053464;28;20114;-46
2022/03/13 01:27:40;;;;;;;13.88;7.30;;;2.70;99.90;;;;;;5053395;28;20021;-46
2022/03/13 01:30:06;;;;;;;15.80;6.75;;;2.70;99.90;;;;;;5054662;28;20025;-46
2022/03/13 01:32:32;;;;;;;15.95;6.93;;;2.60;99.90;;;;;;5054554;28;20025;-47
2022/03/13 01:34:58;;;;;;;17.60;6.95;;;2.50;99.90;;;;;;5054118;28;20072;-46
2022/03/13 01:37:31;;;;;;;14.75;7.43;;;2.40;99.90;;;;;;5053763;28;20025;-46
2022/03/13 01:39:59;;;;;;;18.17;7.15;;;2.30;99.90;;;;;;5054590;28;20021;-46
2022/03/13 01:42:25;;;;;;;19.95;7.63;;;2.30;99.90;;;;;;5054581;28;20025;-48
2022/03/13 01:44:52;;;;;;;17.48;6.93;;;2.30;99.90;;;;;;5054161;28;20029;-47
2022/03/13 01:47:18;;;;;;;15.45;7.10;;;2.30;99.90;;;;;;5054105;28;20029;-48
2022/03/13 01:49:44;;;;;;;19.55;8.07;;;2.40;99.90;;;;;;5052951;28;20028;-46
2022/03/13 01:52:11;;;;;;;16.20;7.82;;;2.50;99.90;;;;;;5052731;28;20026;-45
2022/03/13 01:54:39;;;;;;;19.95;7.10;;;2.50;99.90;;;;;;5054148;28;20090;-47
2022/03/13 01:57:04;;;;;;;13.13;6.35;;;2.50;99.90;;;;;;5052779;28;20092;-48
2022/03/13 01:59:30;;;;;;;18.08;7.68;;;2.50;99.90;;;;;;5054005;28;20155;-46
2022/03/13 02:01:57;;;;;;;18.63;7.80;;;2.40;99.90;;;;;;5052764;28;20086;-46
2022/03/13 02:04:26;;;;;;;18.50;8.13;;;2.30;99.90;;;;;;5053426;28;20051;-47
2022/03/13 02:06:54;;;;;;;16.10;6.68;;;2.40;99.90;;;;;;5054104;28;20025;-48
2022/03/13 02:09:20;;;;;;;18.42;7.72;;;2.30;99.90;;;;;;5054172;28;20028;-46
2022/03/13 02:11:48;;;;;;;16.83;7.28;;;2.30;99.90;;;;;;5052605;28;20507;-46
2022/03/13 02:14:17;;;;;;;14.20;6.82;;;2.30;99.90;;;;;;5053824;28;20021;-49
2022/03/13 02:16:43;;;;;;;16.85;6.88;;;2.30;99.90;;;;;;5052319;28;20116;-46
2022/03/13 02:19:08;;;;;;;18.52;8.00;;;2.20;99.90;;;;;;5052437;28;20068;-48
2022/03/13 02:21:40;;;;;;;15.60;7.60;;;2.10;99.90;;;;;;5054194;28;20031;-45
2022/03/13 02:24:13;;;;;;;;;;;2.00;99.90;;;;;;5052677;28;20044;-46
2022/03/13 02:26:39;;;;;;;15.10;7.05;;;1.80;99.90;;;;;;5053478;28;20358;-46
2022/03/13 02:29:16;;;;;;;19.83;7.75;;;1.80;99.90;;;;;;5053806;28;20100;-46
2022/03/13 02:31:42;;;;;;;16.23;7.30;;;1.90;99.90;;;;;;5052877;28;20021;-45
2022/03/13 02:34:12;;;;;;;14.65;6.88;;;1.90;99.90;;;;;;5053336;28;20028;-45
2022/03/13 02:36:37;;;;;;;14.75;7.38;;;1.90;99.90;;;;;;5052602;28;20029;-50
2022/03/13 02:39:08;;;;;;;19.42;7.15;;;1.90;99.90;;;;;;5052089;28;20025;-46
2022/03/13 02:41:34;;;;;;;12.48;6.43;;;2.00;99.90;;;;;;5052175;28;20036;-45
2022/03/13 02:44:00;;;;;;;15.32;6.35;;;2.00;99.90;;;;;;5053224;28;20084;-50
2022/03/13 02:46:47;;;;;;;21.83;6.70;;;2.00;99.90;;;;;;5052271;28;20044;-46
2022/03/13 02:49:15;;;;;;;14.88;7.45;;;1.80;99.90;;;;;;5052036;28;20060;-45
2022/03/13 02:51:41;;;;;;;18.13;7.28;;;1.90;99.90;;;;;;5051964;28;20033;-47
2022/03/13 02:54:08;;;;;;;13.23;6.30;;;1.80;99.90;;;;;;5053296;28;20025;-49
2022/03/13 02:56:33;;;;;;;13.02;6.47;;;1.90;99.90;;;;;;5052196;28;20025;-51
2022/03/13 02:59:00;;;;;;;14.57;7.43;;;1.90;99.90;;;;;;5051918;28;20043;-46
2022/03/13 03:01:25;;;;;;;19.30;7.47;;;1.90;99.90;;;;;;5053135;28;20017;-45
2022/03/13 03:03:57;;;;;;;16.35;6.85;;;1.90;99.90;;;;;;5055121;28;20032;-49
2022/03/13 03:06:24;;;;;;;15.77;7.70;;;1.80;99.90;;;;;;5057261;28;20025;-47
2022/03/13 03:08:51;;;;;;;17.20;7.13;;;1.80;99.90;;;;;;5056013;28;20112;-49
2022/03/13 03:11:16;;;;;;;16.67;7.28;;;1.70;99.90;;;;;;5057159;28;20115;-52
2022/03/13 03:13:42;;;;;;;18.15;7.47;;;1.70;99.90;;;;;;5057290;28;20061;-46
2022/03/13 03:16:08;;;;;;;17.80;8.15;;;1.80;99.90;;;;;;5056992;28;20032;-51
2022/03/13 03:18:33;;;;;;;19.35;8.60;;;1.80;99.90;;;;;;5057022;28;20040;-52
2022/03/13 03:20:59;;;;;;;18.42;8.30;;;1.70;99.90;;;;;;5055874;28;20029;-49
2022/03/13 03:23:25;;;;;;;16.55;7.55;;;1.60;99.90;;;;;;5056808;28;20033;-45
2022/03/13 03:25:50;;;;;;;13.70;6.88;;;1.60;99.90;;;;;;5055803;28;20081;-48
2022/03/13 03:28:18;;;;;;;17.55;6.85;;;1.40;99.90;;;;;;5055992;28;20163;-46
2022/03/13 03:30:44;;;;;;;15.20;6.55;;;1.50;99.90;;;;;;5055968;28;20017;-47
2022/03/13 03:33:10;;;;;;;15.18;6.95;;;1.70;99.90;;;;;;5056778;28;20057;-47
2022/03/13 03:35:36;;;;;;;15.95;7.18;;;1.50;99.90;;;;;;5056504;28;20059;-47
2022/03/13 03:38:02;;;;;;;15.50;7.35;;;1.40;99.90;;;;;;5055622;28;20036;-49
2022/03/13 03:40:30;;;;;;;18.88;8.07;;;1.40;99.90;;;;;;5055295;28;20028;-48
2022/03/13 03:42:57;;;;;;;18.23;7.65;;;1.40;99.90;;;;;;5056312;28;20029;-45
2022/03/13 03:45:23;;;;;;;12.90;6.47;;;1.40;99.90;;;;;;5056843;28;20048;-45
2022/03/13 03:47:49;;;;;;;16.00;7.53;;;1.40;99.90;;;;;;5056613;28;20024;-45
2022/03/13 03:50:15;;;;;;;22.02;7.97;;;1.40;99.90;;;;;;5056582;28;20031;-45
2022/03/13 03:52:41;;;;;;;16.50;6.78;;;1.50;99.90;;;;;;5056493;28;20071;-46
2022/03/13 03:55:07;;;;;;;13.68;6.68;;;1.50;99.90;;;;;;5056954;28;20025;-45
2022/03/13 03:57:33;;;;;;;13.40;6.95;;;1.50;99.90;;;;;;5056262;28;20021;-45
2022/03/13 03:59:59;;;;;;;24.05;8.20;;;1.40;99.90;;;;;;5056319;28;20021;-45
2022/03/13 04:02:25;;;;;;;17.85;7.38;;;1.40;99.90;;;;;;5056265;28;20025;-45
2022/03/13 04:04:50;;;;;;;16.58;7.22;;;1.30;99.90;;;;;;5054977;28;20546;-46
2022/03/13 04:07:33;;;;;;;15.00;6.63;;;1.20;99.90;;;;;;5056737;28;20050;-45
2022/03/13 04:09:59;;;;;;;18.63;6.82;;;1.10;99.90;;;;;;5054883;28;20021;-46
2022/03/13 04:12:28;;;;;;;16.52;7.57;;;1.00;99.90;;;;;;5056313;28;20021;-45
2022/03/13 04:14:54;;;;;;;15.90;6.68;;;0.90;99.90;;;;;;5056225;28;20108;-45
2022/03/13 04:17:20;;;;;;;14.43;6.65;;;1.00;99.90;;;;;;5054714;28;20052;-45
2022/03/13 04:19:46;;;;;;;11.98;6.25;;;1.10;99.90;;;;;;5055016;28;20021;-46
2022/03/13 04:22:13;;;;;;;19.83;7.45;;;1.10;99.90;;;;;;5054493;28;20029;-45
2022/03/13 04:24:39;;;;;;;19.30;7.85;;;1.10;99.90;;;;;;5055819;28;20029;-45
2022/03/13 04:27:04;;;;;;;16.20;7.95;;;1.10;99.90;;;;;;5055691;28;20032;-45
2022/03/13 04:29:30;;;;;;;15.68;7.07;;;1.00;99.90;;;;;;5055725;28;20033;-46
2022/03/13 04:31:57;;;;;;;10.90;6.65;;;0.90;99.90;;;;;;5055596;28;20028;-45
2022/03/13 04:34:23;;;;;;;18.48;7.55;;;0.90;99.90;;;;;;5055009;28;20021;-47
2022/03/13 04:36:49;;;;;;;15.80;7.38;;;0.70;99.90;;;;;;5054241;28;20027;-50
2022/03/13 04:39:16;;;;;;;22.98;8.57;;;0.70;99.90;;;;;;5054594;28;20029;-46
2022/03/13 04:41:42;;;;;;;18.52;7.93;;;0.70;99.90;;;;;;5054316;28;20056;-49
2022/03/13 04:44:12;;;;;;;16.60;7.65;;;0.70;99.90;;;;;;5055438;28;20484;-46
2022/03/13 04:46:38;;;;;;;16.17;7.00;;;0.80;99.90;;;;;;5054461;28;20048;-47
2022/03/13 04:49:04;;;;;;;16.02;7.65;;;0.80;99.90;;;;;;5055663;28;20025;-47
2022/03/13 04:51:29;;;;;;;20.48;7.78;;;0.90;99.90;;;;;;5055361;28;20021;-45
2022/03/13 04:53:55;;;;;;;15.73;8.32;;;0.90;99.90;;;;;;5054110;28;20025;-45
2022/03/13 04:56:21;;;;;;;18.58;9.00;;;0.90;99.90;;;;;;5055351;28;20101;-47
2022/03/13 04:58:46;;;;;;;16.42;8.30;;;0.80;99.90;;;;;;5053886;28;20364;-46
2022/03/13 05:01:12;;;;;;;18.60;7.35;;;0.90;99.90;;;;;;5055377;28;20032;-46
2022/03/13 05:03:38;;;;;;;18.50;8.10;;;1.00;99.90;;;;;;5055169;28;20103;-45
2022/03/13 05:06:05;;;;;;;22.40;8.10;;;1.00;99.90;;;;;;5053812;28;20017;-46
2022/03/13 05:08:31;;;;;;;19.15;7.47;;;0.90;99.90;;;;;;5053903;28;20056;-45
2022/03/13 05:10:57;;;;;;;15.35;7.60;;;0.90;99.90;;;;;;5054115;28;20107;-46
2022/03/13 05:13:24;;;;;;;17.83;7.88;;;1.00;99.90;;;;;;5053663;28;20111;-45
2022/03/13 05:15:52;;;;;;;17.48;8.40;;;1.00;99.90;;;;;;5053875;28;20025;-45
2022/03/13 05:18:18;;;;;;;17.52;7.75;;;1.00;99.90;;;;;;5054863;28;20055;-47
2022/03/13 05:20:45;;;;;;;14.48;7.75;;;1.00;99.90;;;;;;5053702;28;20029;-45
2022/03/13 05:23:11;;;;;;;16.40;7.68;;;0.90;99.90;;;;;;5054701;28;20033;-46
2022/03/13 05:25:38;;;;;;;18.67;9.07;;;0.70;99.90;;;;;;5054430;28;20049;-47
2022/03/13 05:28:08;;;;;;;23.05;9.05;;;0.70;99.90;;;;;;5054757;28;20078;-45
2022/03/13 05:30:34;;;;;;;17.90;8.23;;;0.60;99.90;;;;;;5054877;28;20028;-46
2022/03/13 05:33:01;;;;;;;19.77;9.35;;;0.50;99.90;;;;;;5053439;28;20028;-45
2022/03/13 05:35:26;;;;;;;20.35;9.10;;;0.50;99.90;;;;;;5053797;28;20025;-45
2022/03/13 05:37:53;;;;;;;19.92;8.68;;;0.50;99.90;;;;;;5053531;28;20028;-45
2022/03/13 05:40:20;;;;;;;22.33;9.27;;;0.50;99.90;;;;;;5053987;28;20051;-45
2022/03/13 05:42:54;;;;;;;19.67;8.43;;;0.50;99.90;;;;;;5053089;28;20056;-46
2022/03/13 05:45:20;;;;;;;16.40;8.65;;;0.60;99.90;;;;;;5054549;28;20124;-47
2022/03/13 05:47:54;;;;;;;17.00;8.20;;;0.70;99.90;;;;;;5054156;28;20025;-45
2022/03/13 05:50:22;;;;;;;24.25;9.45;;;0.90;99.90;;;;;;5053785;28;20112;-46
2022/03/13 05:52:48;;;;;;;20.20;8.60;;;0.80;99.90;;;;;;5052866;28;20028;-46
2022/03/13 05:55:15;;;;;;;18.77;9.35;;;0.70;99.90;;;;;;5052771;28;20387;-47
2022/03/13 05:57:41;;;;;;;14.38;8.25;;;0.70;99.90;;;;;;5048941;28;20052;-45
2022/03/13 06:00:10;;;;;;;21.38;7.85;;;0.70;99.90;;;;;;5034698;28;20017;-46
2022/03/13 06:02:38;;;;;;;24.05;9.57;;;0.80;99.90;;;;;;5032810;28;20030;-45
2022/03/13 06:05:06;;;;;;;17.23;8.18;;;0.90;99.90;;;;;;5033981;28;20060;-47
2022/03/13 06:07:32;;;;;;;19.30;8.98;;;1.00;99.90;;;;;;5032653;28;20492;-45
2022/03/13 06:10:02;;;;;;;20.10;8.65;;;1.10;99.90;;;;;;5033537;28;20025;-47
2022/03/13 06:12:27;;;;;;;23.80;9.82;;;1.20;99.90;;;;;;5033832;28;20018;-49
2022/03/13 06:14:53;;;;;;;19.05;9.15;;;1.50;99.90;;;;;;5035917;28;20033;-48
2022/03/13 06:17:18;;;;;;;21.27;8.35;;;2.10;99.90;;;;;;5054114;28;20029;-48
2022/03/13 06:19:44;;;;;;;22.95;9.60;;;2.20;99.90;;;;;;5054212;28;20021;-51
2022/03/13 06:22:13;;;;;;;21.33;9.55;;;2.80;99.90;;;;;;5053666;28;20029;-51
2022/03/13 06:24:38;;;;;;;20.55;8.95;;;3.20;99.90;;;;;;5053546;28;20025;-46
2022/03/13 06:27:10;;;;;;;20.48;8.30;;;3.70;99.90;;;;;;5052298;28;20086;-46
2022/03/13 06:29:39;;;;;;;;;;;4.10;99.90;;;;;;5054270;28;20352;-46
2022/03/13 06:32:05;;;;;;;16.15;7.82;;;4.70;99.90;;;;;;5052549;28;19904;-46
2022/03/13 06:34:31;;;;;;;20.00;10.15;;;4.80;99.90;;;;;;5053454;28;20025;-46
2022/03/13 06:36:57;;;;;;;21.13;8.70;;;4.90;99.90;;;;;;5052806;28;20031;-46
2022/03/13 06:39:22;;;;;;;16.77;8.90;;;5.10;99.90;;;;;;5053400;28;20031;-46
2022/03/13 06:41:50;;;;;;;21.63;9.60;;;5.20;99.90;;;;;;5053066;28;20029;-46
2022/03/13 06:44:16;;;;;;;20.08;10.00;;;5.30;99.90;;;;;;5052017;28;20044;-45
2022/03/13 06:46:42;;;;;;;25.00;10.23;;;5.70;99.90;;;;;;5052092;28;20048;-46
2022/03/13 06:49:07;;;;;;;21.15;9.75;;;6.30;99.90;;;;;;5052127;28;20039;-46
2022/03/13 06:51:33;;;;;;;20.30;9.52;;;7.40;99.90;;;;;;5053257;28;20021;-46
2022/03/13 06:53:59;;;;;;;17.17;8.20;;;8.20;99.90;;;;;;5052063;28;20036;-49
2022/03/13 06:56:25;;;;;;;22.00;10.57;;;8.70;99.90;;;;;;5051934;28;20021;-51
2022/03/13 06:58:51;;;;;;;18.50;10.32;;;9.20;97.50;;;;;;5053195;28;20040;-51
2022/03/13 07:04:38;;;;;;;18.15;10.20;;;10.30;94.60;;;;;;5033363;28;20400;-48
2022/03/13 07:07:05;;;;;;;20.58;10.77;;;11.20;95.40;;;;;;5033281;28;20026;-51
2022/03/13 07:09:30;;;;;;;18.42;10.23;;;11.60;92.10;;;;;;5032350;28;20083;-46
2022/03/13 07:12:05;;;;;;;18.77;10.90;;;11.40;89.90;;;;;;5031971;28;20030;-48
2022/03/13 07:14:32;;;;;;;20.92;10.82;;;10.90;92.70;;;;;;5033447;28;20562;-46
2022/03/13 07:17:46;;;;;;;19.90;10.43;;;11.70;91.80;;;;;;5032117;28;20022;-46
2022/03/13 07:20:12;;;;;;;18.58;9.57;;;12.60;90.80;;;;;;5033144;28;20033;-48
2022/03/13 07:22:39;;;;;;;17.73;10.00;;;13.40;89.80;;;;;;5031952;28;20431;-45
2022/03/13 07:25:05;;;;;;;21.00;11.40;;;13.70;85.90;;;;;;5032266;28;20035;-47
2022/03/13 07:27:31;;;;;;;21.42;11.18;;;13.50;84.80;;;;;;5033153;28;20053;-46
2022/03/13 07:29:56;;;;;;;22.65;11.30;;;13.80;83.60;;;;;;5033196;28;20022;-46
2022/03/13 07:32:22;;;;;;;19.40;11.80;;;14.10;81.70;;;;;;5047542;28;20108;-47
2022/03/13 07:34:48;;;;;;;19.33;11.45;;;14.70;81.20;;;;;;5050181;28;20057;-46
2022/03/13 07:37:13;;;;;;;18.25;10.77;;;14.90;78.20;;;;;;5032079;28;20124;-47
2022/03/13 07:39:39;;;;;;;18.45;12.10;;;14.70;80.10;;;;;;5031590;28;20029;-46
2022/03/13 07:42:06;;;;;;;19.35;11.65;;;15.30;78.30;;;;;;5031789;28;20044;-49
2022/03/13 07:44:31;;;;;;;38.92;19.23;;;15.90;76.00;;;;;;5032935;28;20030;-46
2022/03/13 07:46:57;;;;;;;18.38;12.32;;;16.00;76.00;;;;;;5032864;28;20072;-52
2022/03/13 07:49:23;;;;;;;18.30;12.98;;;17.00;75.00;;;;;;5034853;28;20017;-46
2022/03/13 07:51:48;;;;;;;20.25;12.65;;;16.40;73.70;;;;;;5035275;28;20017;-45
2022/03/13 07:54:15;;;;;;;22.70;12.73;;;16.60;73.20;;;;;;5035400;28;20029;-46
2022/03/13 07:56:41;;;;;;;18.27;12.07;;;16.80;72.40;;;;;;5035279;28;20036;-46
2022/03/13 08:02:31;;;;;;;23.85;14.50;;;17.80;71.90;;;;;;5036716;28;20076;-46
2022/03/13 08:04:56;;;;;;;17.10;11.65;;;18.70;67.00;;;;;;5035110;28;20061;-46
2022/03/13 08:07:22;;;;;;;10.40;6.22;;;18.60;62.30;;;;;;5035790;28;20045;-45
2022/03/13 08:09:47;;;;;;;7.47;5.25;;;17.90;51.00;;;;;;5035077;28;20028;-45
2022/03/13 08:12:13;;;;;;;7.72;5.20;;;17.00;51.90;;;;;;5035010;28;20373;-46
2022/03/13 08:14:38;;;;;;;8.45;5.43;;;16.40;51.20;;;;;;5036128;28;20075;-46
2022/03/13 08:17:04;;;;;;;7.55;5.15;;;15.60;49.60;;;;;;5036127;28;20028;-46
2022/03/13 08:19:30;;;;;;;7.32;5.43;;;14.70;49.90;;;;;;5036929;28;20116;-45
2022/03/13 08:21:55;;;;;;;8.50;5.25;;;14.80;50.80;;;;;;5054726;28;20175;-46
2022/03/13 08:24:21;;;;;;;7.05;5.03;;;14.30;50.00;;;;;;5056152;28;20159;-46
2022/03/13 08:26:47;;;;;;;10.15;4.72;;;14.20;51.10;;;;;;5054562;28;20021;-46
2022/03/13 08:29:15;;;;;;;9.38;5.45;;;14.40;50.80;;;;;;5055817;28;20021;-46
2022/03/13 08:31:40;;;;;;;7.97;5.25;;;14.80;50.30;;;;;;5055739;28;20100;-46
2022/03/13 08:34:07;;;;;;;11.95;5.40;;;14.70;49.60;;;;;;5055825;28;20162;-46
2022/03/13 08:36:37;;;;;;;9.38;4.82;;;14.80;50.30;;;;;;5056060;28;20025;-46
2022/03/13 08:39:13;;;;;;;8.15;4.78;;;15.10;49.90;;;;;;5055619;28;20099;-47
2022/03/13 08:41:39;;;;;;;6.72;4.75;;;15.10;48.60;;;;;;5054926;28;20154;-46
2022/03/13 08:44:05;;;;;;;9.20;5.10;;;15.40;48.30;;;;;;5054227;28;20029;-46
2022/03/13 08:46:30;;;;;;;9.40;4.88;;;16.10;50.60;;;;;;5054442;28;20017;-46
2022/03/13 08:48:56;;;;;;;10.57;6.35;;;17.50;47.40;;;;;;5054567;28;20028;-46
2022/03/13 08:51:23;;;;;;;10.55;5.70;;;18.10;45.60;;;;;;5054217;28;20033;-50
2022/03/13 08:53:50;;;;;;;7.68;5.50;;;17.60;45.00;;;;;;5055369;28;20075;-46
2022/03/13 08:56:15;;;;;;;10.85;5.20;;;16.90;45.10;;;;;;5054728;28;20025;-48
2022/03/13 08:58:42;;;;;;;9.32;5.78;;;15.90;46.20;;;;;;5055611;28;20475;-46
2022/03/13 09:01:08;;;;;;;8.43;5.50;;;15.70;46.30;;;;;;5053920;28;20029;-46
2022/03/13 09:03:34;;;;;;;9.55;5.63;;;16.20;46.60;;;;;;5054963;28;20036;-46
2022/03/13 09:05:59;;;;;;;7.93;5.20;;;16.60;45.90;;;;;;5053758;28;20021;-46
2022/03/13 09:08:25;;;;;;;7.10;4.88;;;15.70;44.70;;;;;;5055131;28;20021;-50
2022/03/13 09:10:52;;;;;;;9.35;5.47;;;15.20;46.30;;;;;;5054760;28;20060;-47
2022/03/13 09:13:20;;;;;;;8.93;5.22;;;15.80;45.90;;;;;;5054531;28;20025;-49
2022/03/13 09:15:46;;;;;;;10.88;5.53;;;16.20;46.40;;;;;;5053890;28;20059;-47
2022/03/13 09:18:13;;;;;;;7.60;5.03;;;16.70;45.10;;;;;;5053928;28;20033;-46
2022/03/13 09:20:39;;;;;;;9.82;5.70;;;17.20;45.20;;;;;;5054785;28;20110;-50
2022/03/13 09:23:06;;;;;;;9.65;5.93;;;17.80;44.10;;;;;;5054847;28;20075;-47
2022/03/13 09:25:32;;;;;;;8.52;5.95;;;17.70;43.20;;;;;;5054777;28;20131;-46
2022/03/13 09:28:13;;;;;;;9.10;6.13;;;18.00;44.10;;;;;;5053437;28;20021;-50
2022/03/13 09:30:39;;;;;;;8.90;5.95;;;18.40;43.60;;;;;;5054583;28;20345;-46
2022/03/13 09:33:05;;;;;;;9.90;5.60;;;19.20;43.50;;;;;;5054556;28;20108;-46
2022/03/13 09:35:31;;;;;;;9.80;5.57;;;19.30;42.90;;;;;;5054758;28;20091;-47
2022/03/13 09:37:56;;;;;;;6.55;5.22;;;19.00;42.90;;;;;;5053750;28;20116;-46
2022/03/13 09:40:22;;;;;;;10.15;5.60;;;17.50;43.00;;;;;;5053233;28;20056;-49
2022/03/13 09:42:48;;;;;;;11.00;5.80;;;17.40;44.10;;;;;;5054462;28;20361;-48
2022/03/13 09:45:14;;;;;;;8.32;5.95;;;17.40;43.50;;;;;;5052972;28;20036;-46
2022/03/13 09:47:40;;;;;;;9.68;5.95;;;17.10;43.90;;;;;;5053184;28;20021;-46
2022/03/13 09:50:08;;;;;;;9.98;5.85;;;17.20;44.70;;;;;;5053282;28;20031;-50
2022/03/13 09:52:36;;;;;;;8.40;5.63;;;18.10;44.10;;;;;;5054228;28;20036;-46
2022/03/13 09:55:02;;;;;;;11.27;6.35;;;19.50;47.10;;;;;;5054512;28;20053;-47
2022/03/13 09:57:28;;;;;;;8.35;5.43;;;20.60;44.60;;;;;;5052824;28;20029;-51
2022/03/13 09:59:54;;;;;;;9.43;5.85;;;20.10;40.80;;;;;;5052861;28;20029;-48
2022/03/13 10:02:20;;;;;;;6.57;5.30;;;18.60;43.10;;;;;;5054148;28;20029;-48
2022/03/13 10:04:45;;;;;;;9.60;6.25;;;18.70;46.90;;;;;;5053098;28;20061;-49
2022/03/13 10:07:12;;;;;;;9.70;5.70;;;20.00;46.50;;;;;;5052741;28;20021;-47
2022/03/13 10:09:43;;;;;;;9.05;5.70;;;20.40;42.10;;;;;;5053268;28;20029;-51
2022/03/13 10:12:17;;;;;;;10.02;5.75;;;19.50;44.40;;;;;;5052634;28;20021;-46
2022/03/13 10:15:04;;;;;;;8.93;5.88;;;19.20;43.70;;;;;;5052631;28;20025;-46
2022/03/13 10:17:32;;;;;;;11.45;6.30;;;18.50;44.10;;;;;;5052351;28;20021;-46
2022/03/13 10:20:23;;;;;;;9.00;5.85;;;17.40;43.30;;;;;;5053739;28;20025;-47
2022/03/13 10:23:00;;;;;;;6.97;5.15;;;16.90;45.00;;;;;;5052584;28;20048;-48
2022/03/13 10:25:34;;;;;;;9.07;5.40;;;16.00;45.20;;;;;;5052388;28;20036;-46
2022/03/13 10:28:18;;;;;;;8.23;5.50;;;15.00;46.30;;;;;;5061035;28;20027;-45
2022/03/13 10:30:47;;;;;;;9.70;5.40;;;14.80;47.30;;;;;;5073715;28;20080;-47
2022/03/13 10:33:13;;;;;;;11.52;5.22;;;14.90;48.50;;;;;;5072658;28;20035;-46
2022/03/13 10:35:40;;;;;;;11.48;5.72;;;15.10;49.10;;;;;;5072209;28;20078;-46
2022/03/13 10:38:25;;;;;;;9.45;5.85;;;14.80;47.80;;;;;;5072191;28;20085;-46
2022/03/13 10:40:57;;;;;;;8.93;5.05;;;14.30;48.20;;;;;;5074078;28;20061;-46
2022/03/13 10:43:26;;;;;;;;;;;14.10;49.50;;;;;;5072616;28;20024;-46
2022/03/13 10:45:54;;;;;;;13.57;5.00;;;13.50;49.80;;;;;;5073375;28;19908;-48
2022/03/13 10:48:33;;;;;;;7.70;4.93;;;13.20;49.20;;;;;;5073404;28;20012;-46
2022/03/13 10:51:01;;;;;;;11.35;4.93;;;12.60;50.00;;;;;;5072277;28;20024;-46
2022/03/13 10:53:28;;;;;;;10.57;5.45;;;12.70;52.50;;;;;;5072969;28;20036;-46
2022/03/13 10:56:03;;;;;;;6.68;4.28;;;12.70;50.40;;;;;;5071996;28;20028;-45
2022/03/13 10:58:30;;;;;;;16.50;5.03;;;12.80;52.50;;;;;;5073562;28;20498;-49
2022/03/13 11:01:11;;;;;;;9.30;5.05;;;13.00;52.00;;;;;;5073254;28;20020;-49
2022/03/13 11:04:06;;;;;;;11.23;5.25;;;12.80;51.50;;;;;;5073189;28;20021;-49
2022/03/13 11:06:32;;;;;;;8.63;5.25;;;12.60;51.00;;;;;;5071982;28;20032;-46
2022/03/13 11:09:00;;;;;;;7.63;4.68;;;12.30;51.70;;;;;;5073639;28;20024;-46
2022/03/13 11:11:27;;;;;;;12.20;4.65;;;12.70;52.60;;;;;;5073219;28;20013;-46
2022/03/13 11:13:59;;;;;;;11.45;5.38;;;12.60;53.00;;;;;;5073037;28;20035;-45
2022/03/13 11:16:29;;;;;;;7.65;4.95;;;12.30;51.40;;;;;;5071827;28;20031;-45
2022/03/13 11:18:57;;;;;;;10.35;5.18;;;12.10;51.20;;;;;;5073124;28;20035;-46
2022/03/13 11:21:25;;;;;;;10.55;5.60;;;11.90;52.00;;;;;;5072303;28;20028;-46
2022/03/13 11:23:51;;;;;;;10.52;5.25;;;12.00;52.20;;;;;;5073924;28;20082;-45
2022/03/13 11:26:19;;;;;;;10.77;5.47;;;12.30;52.70;;;;;;5076304;28;20024;-46
2022/03/13 11:28:47;;;;;;;9.85;5.05;;;12.40;52.80;;;;;;5077089;28;20422;-45
2022/03/13 11:31:31;;;;;;;12.65;5.47;;;12.60;53.00;;;;;;5077262;28;20048;-45
2022/03/13 11:34:18;;;;;;;11.60;5.43;;;12.30;52.00;;;;;;5076811;28;20034;-46
2022/03/13 11:36:48;;;;;;;9.63;5.50;;;12.10;52.60;;;;;;5075487;28;20025;-46
2022/03/13 11:39:30;;;;;;;14.23;5.45;;;12.30;54.60;;;;;;5076825;28;20487;-46
2022/03/13 11:41:56;;;;;;;8.55;4.78;;;12.40;53.10;;;;;;5076821;28;20047;-48
2022/03/13 11:44:22;;;;;;;11.48;5.78;;;12.30;53.70;;;;;;5075990;28;20123;-45
2022/03/13 11:46:55;;;;;;;9.13;5.57;;;12.20;53.20;;;;;;5075329;28;20435;-47
2022/03/13 11:49:26;;;;;;;10.05;5.25;;;12.10;53.60;;;;;;5076897;28;20020;-45
2022/03/13 11:52:12;;;;;;;;;;;12.10;53.60;;;;;;5077478;28;20501;-46
2022/03/13 11:54:47;;;;;;;9.35;5.47;;;12.00;53.50;;;;;;5075070;28;19910;-49
2022/03/13 11:57:14;;;;;;;9.38;5.47;;;11.90;54.30;;;;;;5075143;28;20036;-46
2022/03/13 11:59:40;;;;;;;11.90;5.70;;;12.00;54.00;;;;;;5075517;28;20127;-47
2022/03/13 12:02:10;;;;;;;9.05;5.25;;;12.10;53.80;;;;;;5075136;28;20459;-46
2022/03/13 12:04:36;;;;;;;10.23;6.45;;;12.10;54.50;;;;;;5076266;28;20025;-47
2022/03/13 12:07:06;;;;;;;10.20;5.85;;;12.00;55.00;;;;;;5076268;28;20070;-46
2022/03/13 12:09:40;;;;;;;11.60;5.63;;;12.20;55.50;;;;;;5075022;28;20066;-48
2022/03/13 12:12:07;;;;;;;11.02;6.25;;;12.60;56.90;;;;;;5076277;28;20025;-45
2022/03/13 12:15:05;;;;;;;9.32;5.13;;;12.90;53.70;;;;;;5075745;28;20032;-48
2022/03/13 12:17:51;;;;;;;11.85;5.72;;;12.70;53.30;;;;;;5076070;28;20020;-49
2022/03/13 12:20:26;;;;;;;32.65;12.70;;;12.50;53.80;;;;;;5075669;28;20525;-45
2022/03/13 12:23:00;;;;;;;10.77;5.85;;;12.50;54.20;;;;;;5074920;28;20123;-47
2022/03/13 12:25:32;;;;;;;11.27;6.00;;;12.50;54.10;;;;;;5075424;28;20103;-47
2022/03/13 12:28:01;;;;;;;14.77;8.32;;;12.50;53.70;;;;;;5075874;28;20094;-46
2022/03/13 12:30:29;;;;;;;13.52;6.18;;;12.50;54.00;;;;;;5074689;28;20040;-48
2022/03/13 12:32:59;;;;;;;14.85;6.55;;;12.50;54.30;;;;;;5073708;28;20047;-47
2022/03/13 12:35:26;;;;;;;9.80;5.80;;;12.60;54.60;;;;;;5074286;28;20032;-46
2022/03/13 12:38:03;;;;;;;11.63;5.97;;;12.60;54.40;;;;;;5075710;28;20020;-46
2022/03/13 12:40:30;;;;;;;10.48;6.18;;;12.60;54.10;;;;;;5075706;28;20016;-45
2022/03/13 12:43:01;;;;;;;10.13;5.85;;;12.50;54.40;;;;;;5075316;28;20032;-45
2022/03/13 12:45:27;;;;;;;9.65;5.93;;;12.40;54.60;;;;;;5074332;28;20020;-45
2022/03/13 12:47:59;;;;;;;10.02;6.13;;;12.50;54.90;;;;;;5074419;28;20047;-45
2022/03/13 12:50:26;;;;;;;9.90;5.60;;;12.70;55.20;;;;;;5074176;28;20024;-45
2022/03/13 12:53:00;;;;;;;10.95;6.75;;;12.80;54.90;;;;;;5075441;28;20024;-46
2022/03/13 12:55:27;;;;;;;15.68;7.15;;;12.80;54.50;;;;;;5074895;28;20059;-45
2022/03/13 12:57:57;;;;;;;9.98;5.75;;;12.70;54.60;;;;;;5074156;28;20016;-45